Time;durP1;ratioP1;P1;durP2;ratioP2;P2;SDS_P1;SDS_P2;PMS_P1;PMS_P2;Temp;Humidity;BMP_temperature;BMP_pressure;BME280_temperature;BME280_humidity;BME280_pressure;Samples;Min_cycle;Max_cycle;Signal;HPM_P1;HPM_P2
2023/08/31 00:01:33;;;;;;;2.87;2.60;;;;;;;12.73;100.00;96302.16;5034829;28;20239;-57
2023/08/31 00:04:01;;;;;;;2.80;2.70;;;;;;;12.85;100.00;96312.88;5038910;28;20203;-58
2023/08/31 00:06:31;;;;;;;2.80;2.70;;;;;;;12.88;100.00;96320.41;5029359;28;20199;-59
2023/08/31 00:08:58;;;;;;;3.17;2.97;;;;;;;12.87;100.00;96318.78;5035314;28;20233;-58
2023/08/31 00:11:26;;;;;;;2.40;2.30;;;;;;;12.82;100.00;96310.66;4983464;28;20365;-56
2023/08/31 00:13:54;;;;;;;2.97;2.87;;;;;;;12.74;100.00;96307.25;5034617;28;20202;-55
2023/08/31 00:16:25;;;;;;;2.80;2.70;;;;;;;12.81;100.00;96312.50;4903909;28;21360;-59
2023/08/31 00:18:54;;;;;;;2.60;2.50;;;;;;;12.81;100.00;96319.66;5034874;28;20227;-57
2023/08/31 00:21:22;;;;;;;2.90;2.70;;;;;;;12.82;100.00;96321.28;5033634;28;20233;-56
2023/08/31 00:23:51;;;;;;;4.13;2.50;;;;;;;12.78;100.00;96325.44;5034388;28;20204;-54
2023/08/31 00:26:18;;;;;;;2.90;2.80;;;;;;;12.70;100.00;96324.69;4979263;28;20306;-55
2023/08/31 00:28:46;;;;;;;2.60;2.50;;;;;;;12.64;100.00;96330.84;5037450;28;20413;-55
2023/08/31 00:31:14;;;;;;;3.23;2.97;;;;;;;12.75;100.00;96334.63;5031241;28;20294;-55
2023/08/31 00:33:41;;;;;;;2.70;2.50;;;;;;;12.76;100.00;96330.16;5036976;28;20204;-53
2023/08/31 00:36:09;;;;;;;2.73;2.63;;;;;;;12.76;100.00;96319.53;5032929;28;20200;-55
2023/08/31 00:38:37;;;;;;;2.97;2.60;;;;;;;12.72;100.00;96319.97;5034238;28;20227;-56
2023/08/31 00:41:06;;;;;;;3.13;2.93;;;;;;;12.74;100.00;96320.56;5031635;28;20219;-59
2023/08/31 00:43:33;;;;;;;3.03;2.87;;;;;;;12.65;100.00;96307.75;5039359;28;20227;-56
2023/08/31 00:46:01;;;;;;;3.30;3.10;;;;;;;12.68;100.00;96317.94;4911200;28;20952;-58
2023/08/31 00:48:29;;;;;;;3.40;3.10;;;;;;;12.72;100.00;96308.50;5030844;28;20223;-54
2023/08/31 00:50:57;;;;;;;3.03;2.83;;;;;;;12.72;100.00;96311.97;5032103;28;20280;-57
2023/08/31 00:53:25;;;;;;;3.07;2.97;;;;;;;12.56;100.00;96313.34;5034988;28;20289;-57
2023/08/31 00:55:53;;;;;;;3.20;3.00;;;;;;;12.57;100.00;96317.63;4987352;28;21143;-58
2023/08/31 00:58:22;;;;;;;2.97;2.87;;;;;;;12.57;100.00;96317.63;5029562;28;20247;-57
2023/08/31 01:01:04;;;;;;;2.73;2.63;;;;;;;12.62;100.00;96316.97;5029777;28;20735;-57
2023/08/31 01:03:38;;;;;;;2.60;2.50;;;;;;;12.64;100.00;96317.56;5039587;28;20199;-56
2023/08/31 01:06:15;;;;;;;2.80;2.70;;;;;;;12.63;100.00;96318.59;5033570;28;20507;-54
2023/08/31 01:08:47;;;;;;;3.10;2.90;;;;;;;12.59;100.00;96325.38;5038146;28;20521;-59
2023/08/31 01:11:23;;;;;;;3.37;3.17;;;;;;;12.57;100.00;96322.13;5037647;28;20211;-58
2023/08/31 01:13:55;;;;;;;3.10;2.90;;;;;;;12.54;100.00;96327.88;5037872;28;20302;-57
2023/08/31 01:16:25;;;;;;;2.90;2.70;;;;;;;12.58;100.00;96334.38;5035517;28;20224;-59
2023/08/31 01:18:53;;;;;;;3.33;3.13;;;;;;;12.59;100.00;96331.50;5039236;28;20325;-57
2023/08/31 01:21:25;;;;;;;3.13;2.93;;;;;;;12.54;100.00;96344.66;4906877;28;20882;-59
2023/08/31 01:23:55;;;;;;;2.87;2.67;;;;;;;12.56;100.00;96339.94;4986275;28;20230;-55
2023/08/31 01:26:24;;;;;;;3.20;3.00;;;;;;;12.57;100.00;96338.06;5036162;28;20293;-58
2023/08/31 01:28:52;;;;;;;3.27;3.13;;;;;;;12.57;100.00;96344.22;4989062;28;20228;-57
2023/08/31 01:31:20;;;;;;;3.50;3.30;;;;;;;12.55;100.00;96346.28;5037197;28;20231;-58
2023/08/31 01:33:48;;;;;;;2.67;2.57;;;;;;;12.57;100.00;96348.69;5037155;28;20314;-59
2023/08/31 01:36:21;;;;;;;3.40;3.20;;;;;;;12.53;100.00;96352.81;5037549;28;20210;-59
2023/08/31 01:38:51;;;;;;;3.63;3.43;;;;;;;12.56;100.00;96355.88;5033481;28;20231;-58
2023/08/31 01:41:22;;;;;;;3.20;3.00;;;;;;;12.53;100.00;96356.31;5038622;28;20231;-58
2023/08/31 01:43:51;;;;;;;3.20;3.00;;;;;;;12.53;100.00;96358.13;5034565;28;20192;-60
2023/08/31 01:46:19;;;;;;;3.63;3.40;;;;;;;12.47;100.00;96364.31;5035807;28;20217;-60
2023/08/31 01:48:47;;;;;;;3.60;3.40;;;;;;;12.54;100.00;96360.59;5036957;28;20370;-59
2023/08/31 01:51:17;;;;;;;3.90;3.70;;;;;;;12.52;100.00;96364.47;5037164;28;20316;-60
2023/08/31 01:53:45;;;;;;;3.97;3.77;;;;;;;12.54;100.00;96359.75;4925557;28;20207;-59
2023/08/31 01:56:13;;;;;;;5.50;4.73;;;;;;;12.52;100.00;96356.50;5034537;28;20257;-60
2023/08/31 01:58:42;;;;;;;3.70;3.50;;;;;;;12.53;100.00;96361.63;5033039;28;20326;-59
2023/08/31 02:01:10;;;;;;;3.73;3.53;;;;;;;12.55;100.00;96369.34;5040999;28;20219;-58
2023/08/31 02:03:38;;;;;;;4.47;4.10;;;;;;;12.43;100.00;96371.88;4976121;28;20933;-58
2023/08/31 02:06:06;;;;;;;4.53;4.23;;;;;;;12.44;100.00;96374.34;5039294;28;20663;-61
2023/08/31 02:08:34;;;;;;;4.13;3.83;;;;;;;12.37;100.00;96372.75;5010793;28;20389;-61
2023/08/31 02:11:02;;;;;;;4.50;4.20;;;;;;;12.37;100.00;96364.78;4991753;28;20246;-60
2023/08/31 02:13:31;;;;;;;4.80;4.50;;;;;;;12.37;100.00;96362.13;5036164;28;20652;-60
2023/08/31 02:16:00;;;;;;;5.13;4.13;;;;;;;12.37;100.00;96364.78;5030664;28;20721;-56
2023/08/31 02:18:27;;;;;;;4.50;4.10;;;;;;;12.21;100.00;96363.47;5036014;28;20236;-60
2023/08/31 02:20:55;;;;;;;4.90;4.60;;;;;;;12.18;100.00;96354.09;5042049;28;20662;-60
2023/08/31 02:23:25;;;;;;;4.67;4.37;;;;;;;12.13;100.00;96360.03;5028984;28;20261;-59
2023/08/31 02:25:55;;;;;;;4.20;3.93;;;;;;;12.15;100.00;96362.50;4952355;28;20258;-56
2023/08/31 02:28:23;;;;;;;4.97;4.07;;;;;;;12.11;100.00;96366.59;5036320;28;20575;-59
2023/08/31 02:31:00;;;;;;;5.47;4.97;;;;;;;12.10;100.00;96359.66;5032794;28;20738;-55
2023/08/31 02:33:28;;;;;;;4.67;4.37;;;;;;;12.14;100.00;96374.94;5032592;28;20212;-56
2023/08/31 02:35:55;;;;;;;4.67;4.37;;;;;;;12.10;100.00;96376.41;4998569;28;20278;-55
2023/08/31 02:38:23;;;;;;;4.63;4.33;;;;;;;12.13;100.00;96377.84;5034758;28;20867;-58
2023/08/31 02:40:51;;;;;;;4.67;4.37;;;;;;;12.03;100.00;96375.63;5033702;28;20755;-57
2023/08/31 02:43:19;;;;;;;5.20;4.70;;;;;;;11.93;100.00;96375.22;5037468;28;22388;-58
2023/08/31 02:45:46;;;;;;;5.07;4.60;;;;;;;12.02;100.00;96377.47;5030233;28;20288;-57
2023/08/31 02:48:15;;;;;;;5.07;4.63;;;;;;;12.00;100.00;96378.69;5041343;28;20254;-57
2023/08/31 02:50:43;;;;;;;5.07;4.63;;;;;;;12.00;100.00;96381.34;5035332;28;20262;-59
2023/08/31 02:53:11;;;;;;;5.20;4.90;;;;;;;12.00;100.00;96384.00;5036993;28;20254;-57
2023/08/31 02:55:39;;;;;;;5.00;4.60;;;;;;;12.09;100.00;96388.06;4911852;28;20219;-59
2023/08/31 02:58:07;;;;;;;7.07;4.53;;;;;;;12.14;100.00;96390.09;5034714;28;20296;-58
2023/08/31 03:00:34;;;;;;;4.40;4.10;;;;;;;12.11;100.00;96388.66;5032058;28;20228;-61
2023/08/31 03:03:02;;;;;;;4.57;4.30;;;;;;;12.06;100.00;96388.47;5038800;28;20199;-59
2023/08/31 03:05:31;;;;;;;4.30;4.10;;;;;;;12.07;100.00;96398.06;4979398;28;20714;-58
2023/08/31 03:07:59;;;;;;;4.70;4.40;;;;;;;12.10;100.00;96397.66;4970254;28;20232;-60
2023/08/31 03:10:26;;;;;;;4.70;4.30;;;;;;;12.08;100.00;96404.19;5037060;28;20192;-58
2023/08/31 03:12:54;;;;;;;4.83;4.53;;;;;;;12.11;100.00;96407.25;5030257;28;20281;-55
2023/08/31 03:15:23;;;;;;;4.53;4.23;;;;;;;12.15;100.00;96402.34;5038316;28;20208;-57
2023/08/31 03:17:50;;;;;;;4.40;4.00;;;;;;;12.05;100.00;96408.09;5030901;28;20277;-58
2023/08/31 03:20:18;;;;;;;4.80;4.50;;;;;;;12.03;100.00;96410.16;5035483;28;20302;-55
2023/08/31 03:22:47;;;;;;;4.47;4.27;;;;;;;12.09;100.00;96413.78;5031542;28;20278;-60
2023/08/31 03:25:15;;;;;;;4.47;4.17;;;;;;;12.08;100.00;96407.66;5031524;28;20207;-58
2023/08/31 03:27:44;;;;;;;4.30;3.90;;;;;;;12.09;100.00;96411.94;4944770;28;21309;-60
2023/08/31 03:30:12;;;;;;;4.17;3.90;;;;;;;12.10;100.00;96410.09;5030920;28;20544;-60
2023/08/31 03:32:40;;;;;;;4.90;4.50;;;;;;;12.00;100.00;96416.69;5027002;28;20205;-58
2023/08/31 03:35:08;;;;;;;4.20;3.90;;;;;;;11.93;100.00;96404.44;5033622;28;20204;-57
2023/08/31 03:37:36;;;;;;;4.37;3.97;;;;;;;11.88;100.00;96405.88;4974173;28;20252;-58
2023/08/31 03:40:07;;;;;;;4.03;3.73;;;;;;;11.80;100.00;96402.69;5035860;28;20285;-55
2023/08/31 03:42:35;;;;;;;4.03;3.73;;;;;;;11.81;100.00;96418.38;5029751;28;20646;-58
2023/08/31 03:45:03;;;;;;;4.20;4.00;;;;;;;11.79;100.00;96419.63;5033364;28;20204;-56
2023/08/31 03:47:31;;;;;;;4.33;4.03;;;;;;;11.83;100.00;96413.66;5028793;28;20791;-58
2023/08/31 03:49:59;;;;;;;4.30;3.90;;;;;;;11.87;100.00;96414.06;5035169;28;20238;-61
2023/08/31 03:52:27;;;;;;;4.47;4.27;;;;;;;11.91;100.00;96428.56;5013089;28;21252;-59
2023/08/31 03:54:54;;;;;;;4.73;4.43;;;;;;;11.88;100.00;96423.66;5034524;28;20196;-59
2023/08/31 03:57:23;;;;;;;4.67;4.23;;;;;;;11.95;100.00;96426.31;5031457;28;20582;-57
2023/08/31 03:59:51;;;;;;;4.37;4.07;;;;;;;12.01;100.00;96428.94;5033044;28;20239;-57
2023/08/31 04:02:19;;;;;;;4.27;4.07;;;;;;;11.92;100.00;96434.66;4926572;28;20829;-58
2023/08/31 04:04:47;;;;;;;4.23;4.03;;;;;;;11.90;100.00;96436.72;5034975;28;20763;-55
2023/08/31 04:07:14;;;;;;;4.63;4.33;;;;;;;11.84;100.00;96436.53;4978241;28;21293;-57
2023/08/31 04:09:42;;;;;;;4.20;4.00;;;;;;;11.81;100.00;96444.13;5033399;28;20206;-55
2023/08/31 04:12:10;;;;;;;4.73;4.33;;;;;;;11.78;100.00;96450.66;5028342;28;21023;-57
2023/08/31 04:14:39;;;;;;;4.57;4.27;;;;;;;11.83;100.00;96461.44;5035994;28;20212;-61
2023/08/31 04:17:07;;;;;;;3.90;3.60;;;;;;;11.84;100.00;96460.41;5031533;28;20295;-58
2023/08/31 04:19:36;;;;;;;4.33;4.00;;;;;;;11.78;100.00;96458.59;5036090;28;20709;-60
2023/08/31 04:22:04;;;;;;;4.27;3.83;;;;;;;11.84;100.00;96459.63;5031453;28;20200;-57
2023/08/31 04:24:33;;;;;;;3.80;3.60;;;;;;;11.79;100.00;96470.84;5036338;28;20204;-57
2023/08/31 04:27:00;;;;;;;4.87;3.80;;;;;;;11.76;100.00;96475.78;5033819;28;20742;-54
2023/08/31 04:29:28;;;;;;;4.40;4.20;;;;;;;11.68;100.00;96471.50;5038344;28;20238;-55
2023/08/31 04:31:58;;;;;;;3.80;3.60;;;;;;;11.62;100.00;96467.03;5030027;28;20636;-58
2023/08/31 04:34:26;;;;;;;4.63;4.33;;;;;;;11.60;100.00;96475.19;5035145;28;20203;-58
2023/08/31 04:36:55;;;;;;;5.07;3.87;;;;;;;11.50;100.00;96474.81;4948002;28;21176;-60
2023/08/31 04:39:26;;;;;;;4.80;4.30;;;;;;;11.49;100.00;96483.78;5039277;28;20308;-60
2023/08/31 04:41:54;;;;;;;4.20;3.90;;;;;;;11.40;100.00;96491.16;4990694;28;20742;-59
2023/08/31 04:44:22;;;;;;;4.07;3.87;;;;;;;11.38;100.00;96498.50;5038377;28;20227;-57
2023/08/31 04:46:50;;;;;;;4.20;4.00;;;;;;;11.35;100.00;96498.91;5035009;28;20318;-58
2023/08/31 04:49:19;;;;;;;4.50;4.20;;;;;;;11.33;100.00;96501.75;5039399;28;20251;-59
2023/08/31 04:51:47;;;;;;;4.40;4.03;;;;;;;11.32;100.00;96509.94;5035872;28;20231;-60
2023/08/31 04:54:14;;;;;;;3.90;3.63;;;;;;;11.28;100.00;96512.16;5040026;28;20271;-60
2023/08/31 04:56:42;;;;;;;3.87;3.67;;;;;;;11.27;100.00;96500.75;5034528;28;20285;-61
2023/08/31 04:59:10;;;;;;;4.50;4.20;;;;;;;11.26;100.00;96504.44;5039360;28;20235;-58
2023/08/31 05:01:37;;;;;;;4.80;4.20;;;;;;;11.24;100.00;96511.78;5037946;28;20301;-58
2023/08/31 05:04:05;;;;;;;4.43;4.13;;;;;;;11.23;100.00;96507.50;5033888;28;20208;-58
2023/08/31 05:06:34;;;;;;;4.40;4.10;;;;;;;11.20;100.00;96513.22;5036792;28;20204;-57
2023/08/31 05:09:03;;;;;;;4.40;4.10;;;;;;;11.22;100.00;96518.28;5033334;28;20215;-56
2023/08/31 05:11:30;;;;;;;4.57;4.17;;;;;;;11.24;100.00;96518.91;4909826;28;20742;-59
2023/08/31 05:13:58;;;;;;;4.47;4.17;;;;;;;11.26;100.00;96523.00;5038930;28;22262;-59
2023/08/31 05:16:25;;;;;;;4.60;4.30;;;;;;;11.27;100.00;96526.44;4992706;28;20218;-56
2023/08/31 05:18:53;;;;;;;4.73;4.33;;;;;;;11.32;100.00;96531.16;5034811;28;20223;-58
2023/08/31 05:21:21;;;;;;;4.77;4.47;;;;;;;11.42;100.00;96537.69;5014402;28;20300;-60
2023/08/31 05:23:50;;;;;;;4.60;4.30;;;;;;;11.55;100.00;96543.97;5034516;28;20299;-59
2023/08/31 05:26:18;;;;;;;5.20;4.53;;;;;;;11.50;100.00;96536.63;5034028;28;20219;-59
2023/08/31 05:28:46;;;;;;;4.73;4.40;;;;;;;11.53;100.00;96553.97;5038761;28;20212;-59
2023/08/31 05:31:14;;;;;;;4.23;4.03;;;;;;;11.50;100.00;96551.75;4981587;28;20912;-58
2023/08/31 05:33:42;;;;;;;4.77;4.47;;;;;;;11.45;100.00;96552.34;5038861;28;21902;-61
2023/08/31 05:36:09;;;;;;;4.80;4.50;;;;;;;11.61;100.00;96552.97;4992338;28;20210;-58
2023/08/31 05:38:38;;;;;;;4.87;4.57;;;;;;;11.71;100.00;96558.66;5043910;28;20300;-59
2023/08/31 05:41:09;;;;;;;5.60;5.20;;;;;;;11.74;100.00;96566.19;4955661;28;20308;-58
2023/08/31 05:43:39;;;;;;;5.40;5.10;;;;;;;11.87;100.00;96560.06;5036687;28;20294;-58
2023/08/31 05:46:08;;;;;;;4.50;4.20;;;;;;;11.97;100.00;96559.63;5033603;28;20199;-56
2023/08/31 05:48:36;;;;;;;5.73;5.33;;;;;;;12.05;100.00;96571.88;5039086;28;20211;-56
2023/08/31 05:51:04;;;;;;;4.50;4.20;;;;;;;12.07;100.00;96572.50;5033997;28;20735;-60
2023/08/31 05:53:32;;;;;;;4.53;4.23;;;;;;;12.13;100.00;96564.50;5035198;28;20208;-56
2023/08/31 05:56:03;;;;;;;5.10;4.70;;;;;;;12.23;100.00;96571.22;5032707;28;20268;-58
2023/08/31 05:58:34;;;;;;;5.20;4.90;;;;;;;12.32;100.00;96575.28;5037073;28;20281;-55
2023/08/31 06:01:02;;;;;;;4.70;4.30;;;;;;;12.43;100.00;96569.31;5033617;28;20232;-60
2023/08/31 06:03:30;;;;;;;4.23;3.93;;;;;;;12.55;100.00;96566.81;4978680;28;20661;-58
2023/08/31 06:05:58;;;;;;;4.50;3.60;;;;;;;12.71;100.00;96565.50;5037017;28;20200;-61
2023/08/31 06:08:26;;;;;;;4.17;3.90;;;;;;;12.81;100.00;96572.19;4995738;28;20227;-58
2023/08/31 06:10:54;;;;;;;4.77;4.30;;;;;;;12.94;100.00;96564.13;5040205;28;20262;-61
2023/08/31 06:13:22;;;;;;;3.90;3.70;;;;;;;12.91;100.00;96542.50;4935779;28;22541;-59
2023/08/31 06:15:52;;;;;;;3.90;3.70;;;;;;;12.95;100.00;96549.81;5036968;28;20203;-59
2023/08/31 06:18:19;;;;;;;3.43;3.23;;;;;;;13.03;100.00;96548.75;5031855;28;20222;-61
2023/08/31 06:20:48;;;;;;;3.73;3.53;;;;;;;13.16;100.00;96547.84;5035716;28;20265;-59
2023/08/31 06:23:16;;;;;;;3.83;3.53;;;;;;;13.35;100.00;96542.56;4979208;28;20644;-60
2023/08/31 06:25:45;;;;;;;4.80;4.23;;;;;;;13.49;100.00;96549.47;5030774;28;20215;-59
2023/08/31 06:28:13;;;;;;;3.50;3.30;;;;;;;13.46;100.00;96533.94;5036655;28;20293;-59
2023/08/31 06:30:46;;;;;;;5.10;3.53;;;;;;;13.23;100.00;96540.63;5039434;28;20249;-55
2023/08/31 06:33:15;;;;;;;3.77;3.47;;;;;;;13.11;100.00;96550.34;5037316;28;20302;-59
2023/08/31 06:35:43;;;;;;;4.10;3.77;;;;;;;13.17;100.00;96557.44;5036302;28;20261;-60
2023/08/31 06:38:11;;;;;;;3.50;3.20;;;;;;;13.34;100.00;96539.09;4993293;28;20345;-59
2023/08/31 06:40:39;;;;;;;4.33;4.00;;;;;;;13.81;100.00;96569.84;5029546;28;20229;-56
2023/08/31 06:43:07;;;;;;;3.90;3.60;;;;;;;13.87;100.00;96574.28;4957137;28;25852;-59
2023/08/31 06:45:40;;;;;;;3.97;3.50;;;;;;;13.97;100.00;96573.78;5009137;28;20870;-58
2023/08/31 06:48:08;;;;;;;4.50;4.10;;;;;;;13.93;100.00;96583.25;5035771;28;20302;-61
2023/08/31 06:50:37;;;;;;;3.67;3.27;;;;;;;14.00;100.00;96573.34;5038858;28;20195;-60
2023/08/31 06:53:05;;;;;;;4.30;3.90;;;;;;;13.93;100.00;96577.94;5035242;28;20280;-60
2023/08/31 06:55:33;;;;;;;4.47;4.17;;;;;;;13.78;100.00;96575.59;5034269;28;20206;-59
2023/08/31 06:58:03;;;;;;;4.33;3.93;;;;;;;13.52;100.00;96564.97;5032987;28;20314;-61
2023/08/31 07:00:32;;;;;;;4.27;3.97;;;;;;;13.43;100.00;96560.94;5035958;28;20200;-59
2023/08/31 07:03:00;;;;;;;4.47;4.07;;;;;;;13.57;100.00;96573.13;5034306;28;20235;-61
2023/08/31 07:05:29;;;;;;;4.50;4.20;;;;;;;13.81;100.00;96583.16;5035350;28;20204;-61
2023/08/31 07:07:59;;;;;;;4.37;4.03;;;;;;;14.17;100.00;96582.38;5013192;28;20888;-60
2023/08/31 07:10:26;;;;;;;5.33;4.00;;;;;;;14.38;100.00;96588.28;5008595;28;20223;-56
2023/08/31 07:12:54;;;;;;;5.57;4.30;;;;;;;14.35;100.00;96586.06;5030125;28;20283;-60
2023/08/31 07:15:22;;;;;;;4.10;3.80;;;;;;;14.60;100.00;96593.19;5034676;28;20208;-57
2023/08/31 07:17:50;;;;;;;4.23;3.90;;;;;;;14.68;100.00;96592.88;5002642;28;20238;-60
2023/08/31 07:20:19;;;;;;;4.90;4.57;;;;;;;14.75;100.00;96590.13;4963974;28;20429;-58
2023/08/31 07:22:47;;;;;;;4.80;4.40;;;;;;;14.72;100.00;96590.56;5033666;28;20243;-59
2023/08/31 07:25:17;;;;;;;5.33;4.20;;;;;;;14.79;100.00;96586.00;5032457;28;20211;-57
2023/08/31 07:27:46;;;;;;;5.33;4.20;;;;;;;14.44;100.00;96587.41;5034295;28;20219;-60
2023/08/31 07:30:14;;;;;;;4.40;4.10;;;;;;;14.26;100.00;96590.88;5032902;28;20679;-58
2023/08/31 07:32:41;;;;;;;4.90;4.37;;;;;;;14.11;100.00;96596.56;5037714;28;20199;-61
2023/08/31 07:35:09;;;;;;;4.40;4.00;;;;;;;14.32;100.00;96595.31;5030519;28;20210;-56
2023/08/31 07:37:37;;;;;;;4.70;4.30;;;;;;;14.10;100.00;96594.16;5038330;28;20915;-58
2023/08/31 07:40:09;;;;;;;5.50;4.00;;;;;;;14.06;100.00;96593.75;5031657;28;20204;-62
2023/08/31 07:42:39;;;;;;;4.27;3.97;;;;;;;14.02;100.00;96590.75;5037238;28;20756;-60
2023/08/31 07:45:08;;;;;;;4.73;4.33;;;;;;;14.26;100.00;96596.22;4984448;28;20208;-56
2023/08/31 07:47:35;;;;;;;3.50;3.30;;;;;;;13.98;100.00;96600.19;5033985;28;20269;-56
2023/08/31 07:50:03;;;;;;;5.27;3.90;;;;;;;13.87;100.00;96607.06;5029935;28;20257;-59
2023/08/31 07:52:31;;;;;;;7.63;4.07;;;;;;;13.91;100.00;96611.94;5036709;28;20227;-61
2023/08/31 07:54:59;;;;;;;5.07;3.93;;;;;;;14.01;100.00;96610.38;4906158;28;20377;-59
2023/08/31 07:57:26;;;;;;;3.87;3.57;;;;;;;14.35;100.00;96625.22;5038008;28;20203;-56
2023/08/31 07:59:55;;;;;;;3.53;3.23;;;;;;;14.94;100.00;96630.09;5032303;28;20282;-58
2023/08/31 08:02:23;;;;;;;3.77;3.43;;;;;;;15.20;100.00;96626.25;5014158;28;20728;-60
2023/08/31 08:04:51;;;;;;;3.90;3.60;;;;;;;15.63;100.00;96633.19;5005685;28;20203;-59
2023/08/31 08:07:19;;;;;;;5.03;2.87;;;;;;;15.66;100.00;96623.94;5037708;28;20212;-61
2023/08/31 08:09:46;;;;;;;4.10;2.83;;;;;;;15.72;100.00;96623.00;5032410;28;20287;-59
2023/08/31 08:12:14;;;;;;;3.80;2.93;;;;;;;15.73;100.00;96639.84;5034358;28;20322;-59
2023/08/31 08:14:42;;;;;;;4.27;3.37;;;;;;;15.41;100.00;96638.25;4985667;28;20366;-59
2023/08/31 08:17:11;;;;;;;4.87;3.00;;;;;;;15.14;100.00;96643.19;5034956;28;20203;-57
2023/08/31 08:19:39;;;;;;;3.53;2.60;;;;;;;14.96;100.00;96641.34;4984148;28;20611;-61
2023/08/31 08:22:07;;;;;;;4.37;3.00;;;;;;;14.66;100.00;96642.09;5033461;28;20228;-59
2023/08/31 08:24:34;;;;;;;4.23;2.57;;;;;;;14.57;100.00;96642.41;5031421;28;20231;-59
2023/08/31 08:27:02;;;;;;;3.07;2.87;;;;;;;14.82;100.00;96651.38;5033469;28;20296;-57
2023/08/31 08:29:30;;;;;;;2.63;2.43;;;;;;;15.08;100.00;96649.41;4905316;28;20625;-58
2023/08/31 08:31:57;;;;;;;3.20;3.00;;;;;;;15.54;100.00;96634.59;5035912;28;20236;-58
2023/08/31 08:34:28;;;;;;;2.57;2.43;;;;;;;15.95;100.00;96629.44;5028510;28;20199;-58
2023/08/31 08:36:56;;;;;;;3.00;2.70;;;;;;;16.28;100.00;96635.22;5037111;28;20337;-57
2023/08/31 08:39:24;;;;;;;3.07;2.80;;;;;;;16.42;100.00;96636.59;5029773;28;20235;-58
2023/08/31 08:41:52;;;;;;;2.87;2.50;;;;;;;16.28;100.00;96633.34;5033670;28;20226;-59
2023/08/31 08:44:21;;;;;;;4.50;2.40;;;;;;;16.47;100.00;96623.34;5028558;28;20417;-56
2023/08/31 08:46:49;;;;;;;2.70;2.50;;;;;;;16.73;100.00;96628.41;5034782;28;20313;-59
2023/08/31 08:49:17;;;;;;;2.53;2.33;;;;;;;16.75;100.00;96629.00;4985099;28;20239;-56
2023/08/31 08:51:47;;;;;;;2.80;2.50;;;;;;;16.76;100.00;96641.31;5035128;28;20212;-58
2023/08/31 08:54:15;;;;;;;2.43;2.23;;;;;;;16.81;100.00;96637.91;4976399;28;20211;-58
2023/08/31 08:56:43;;;;;;;4.00;2.27;;;;;;;16.75;100.00;96639.69;5035563;28;20199;-56
2023/08/31 08:59:13;;;;;;;2.20;2.00;;;;;;;16.42;100.00;96643.81;5031495;28;20219;-55
2023/08/31 09:01:41;;;;;;;2.60;2.30;;;;;;;16.72;100.00;96653.53;5037272;28;20199;-60
2023/08/31 09:04:10;;;;;;;3.33;2.33;;;;;;;16.90;100.00;96644.53;4907773;28;20219;-60
2023/08/31 09:06:37;;;;;;;3.60;2.57;;;;;;;16.70;100.00;96652.97;5034241;28;20203;-59
2023/08/31 09:09:09;;;;;;;2.50;2.30;;;;;;;16.48;100.00;96654.41;5030348;28;20216;-57
2023/08/31 09:11:37;;;;;;;2.23;1.97;;;;;;;16.37;100.00;96654.41;5029355;28;20209;-56
2023/08/31 09:14:15;;;;;;;3.37;2.30;;;;;;;16.03;100.00;96649.63;5031390;28;20591;-61
2023/08/31 09:16:45;;;;;;;3.83;2.67;;;;;;;15.95;100.00;96644.66;5034919;28;20262;-59
2023/08/31 09:19:20;;;;;;;3.30;2.37;;;;;;;16.08;100.00;96654.28;5031291;28;20230;-59
2023/08/31 09:21:49;;;;;;;5.13;2.30;;;;;;;16.00;100.00;96656.28;5035751;28;20203;-61
2023/08/31 09:24:18;;;;;;;2.77;2.10;;;;;;;15.98;100.00;96663.72;4982860;28;20223;-57
2023/08/31 09:26:46;;;;;;;2.50;2.30;;;;;;;16.09;100.00;96663.94;5037837;28;20203;-55
2023/08/31 09:29:14;;;;;;;2.80;2.40;;;;;;;15.77;100.00;96649.81;4983029;28;20231;-60
2023/08/31 09:31:44;;;;;;;3.27;2.20;;;;;;;15.69;100.00;96660.84;5037371;28;20231;-57
2023/08/31 09:34:12;;;;;;;2.07;1.87;;;;;;;15.73;100.00;96658.53;5033843;28;20269;-59
2023/08/31 09:36:39;;;;;;;2.30;2.10;;;;;;;15.54;100.00;96655.13;5037192;28;20287;-61
2023/08/31 09:39:08;;;;;;;1.83;1.73;;;;;;;16.04;100.00;96672.63;4926537;28;20236;-60
2023/08/31 09:41:53;;;;;;;3.40;2.67;;;;;;;16.25;100.00;96667.78;5036375;28;20400;-60
2023/08/31 09:44:21;;;;;;;2.40;2.17;;;;;;;16.59;100.00;96665.31;5031519;28;20227;-60
2023/08/31 09:46:49;;;;;;;4.20;2.03;;;;;;;16.95;100.00;96660.69;5037228;28;20218;-58
2023/08/31 09:49:18;;;;;;;3.20;1.87;;;;;;;17.26;100.00;96672.00;5031334;28;20223;-62
2023/08/31 09:51:47;;;;;;;3.47;2.30;;;;;;;17.35;100.00;96670.56;5038175;28;20211;-58
2023/08/31 09:54:17;;;;;;;2.47;2.10;;;;;;;17.23;100.00;96677.81;5029578;28;20200;-62
2023/08/31 09:56:47;;;;;;;3.03;2.20;;;;;;;17.09;100.00;96679.16;5034313;28;20215;-57
2023/08/31 09:59:16;;;;;;;1.97;1.87;;;;;;;17.17;100.00;96671.56;4974583;28;20302;-61
2023/08/31 10:01:46;;;;;;;2.30;2.20;;;;;;;16.57;98.64;96684.25;5035087;28;21117;-60
2023/08/31 10:04:14;;;;;;;2.30;2.20;;;;;;;16.27;100.00;96681.72;5030553;28;21433;-58
2023/08/31 10:06:42;;;;;;;2.97;2.20;;;;;;;16.22;100.00;96684.28;5035366;28;20435;-60
2023/08/31 10:09:11;;;;;;;2.90;2.27;;;;;;;16.13;100.00;96686.47;4924354;28;20239;-56
2023/08/31 10:11:39;;;;;;;2.33;1.93;;;;;;;15.97;100.00;96682.63;5034576;28;20208;-57
2023/08/31 10:14:10;;;;;;;2.87;2.17;;;;;;;16.15;100.00;96685.22;5033950;28;20192;-58
2023/08/31 10:16:40;;;;;;;2.77;2.30;;;;;;;16.51;100.00;96682.50;5037438;28;20199;-58
2023/08/31 10:19:08;;;;;;;2.63;1.83;;;;;;;16.49;100.00;96676.59;5036260;28;20229;-59
2023/08/31 10:21:37;;;;;;;1.80;1.70;;;;;;;16.50;100.00;96680.88;5036555;28;20606;-57
2023/08/31 10:24:06;;;;;;;6.10;2.47;;;;;;;16.87;100.00;96685.13;5033692;28;20233;-60
2023/08/31 10:26:34;;;;;;;2.17;1.63;;;;;;;16.57;100.00;96686.91;5035290;28;20641;-59
2023/08/31 10:29:04;;;;;;;2.20;1.90;;;;;;;16.53;100.00;96680.41;5035371;28;20342;-59
2023/08/31 10:31:35;;;;;;;1.90;1.80;;;;;;;16.57;100.00;96678.09;5033505;28;20203;-59
2023/08/31 10:34:04;;;;;;;3.43;2.00;;;;;;;16.72;100.00;96678.41;4980896;28;20210;-54
2023/08/31 10:36:37;;;;;;;2.90;1.97;;;;;;;16.88;100.00;96681.41;5032262;28;20520;-59
2023/08/31 10:39:12;;;;;;;2.50;2.30;;;;;;;16.87;96.45;96687.81;5033987;28;20281;-55
2023/08/31 10:41:40;;;;;;;3.10;2.30;;;;;;;16.81;100.00;96676.19;5038627;28;20226;-58
2023/08/31 10:44:21;;;;;;;2.40;2.10;;;;;;;16.87;95.83;96679.78;4910478;28;20224;-60
2023/08/31 10:46:51;;;;;;;2.40;1.67;;;;;;;16.81;94.58;96680.72;5036797;28;20218;-60
2023/08/31 10:49:20;;;;;;;2.30;2.10;;;;;;;16.86;90.38;96675.50;5028868;28;20232;-61
2023/08/31 10:51:50;;;;;;;3.13;2.33;;;;;;;16.91;90.81;96679.06;5037337;28;20207;-61
2023/08/31 10:54:21;;;;;;;3.00;2.10;;;;;;;16.84;93.45;96672.22;5029387;28;20207;-60
2023/08/31 10:56:54;;;;;;;2.03;1.90;;;;;;;16.74;93.29;96675.50;5035920;28;20280;-56
2023/08/31 10:59:22;;;;;;;3.33;1.87;;;;;;;16.92;98.55;96667.31;5031298;28;20736;-59
2023/08/31 11:01:55;;;;;;;3.87;2.13;;;;;;;17.02;87.66;96673.94;5037903;28;20279;-59
2023/08/31 11:04:24;;;;;;;3.13;2.13;;;;;;;16.93;82.07;96658.22;5031034;28;20731;-57
2023/08/31 11:07:14;;;;;;;1.67;1.57;;;;;;;17.01;90.21;96665.09;5038525;28;20261;-55
2023/08/31 11:09:43;;;;;;;1.90;1.80;;;;;;;17.19;90.42;96657.94;4990658;28;20242;-58
2023/08/31 11:12:12;;;;;;;3.67;1.90;;;;;;;17.20;87.13;96662.22;5033949;28;20208;-60
2023/08/31 11:14:40;;;;;;;2.33;2.13;;;;;;;17.40;91.00;96659.09;5033531;28;20379;-60
2023/08/31 11:17:13;;;;;;;2.20;2.00;;;;;;;17.61;94.06;96662.94;5037978;28;20208;-61
2023/08/31 11:19:42;;;;;;;1.97;1.40;;;;;;;17.26;85.55;96665.81;4940457;28;20851;-61
2023/08/31 11:22:11;;;;;;;3.20;2.23;;;;;;;17.40;91.79;96663.66;5033977;28;20203;-60
2023/08/31 11:24:40;;;;;;;6.03;2.40;;;;;;;17.48;98.58;96665.94;5033120;28;20231;-58
2023/08/31 11:27:10;;;;;;;5.17;2.13;;;;;;;17.42;93.97;96664.25;5037126;28;20206;-62
2023/08/31 11:29:40;;;;;;;2.83;2.47;;;;;;;17.34;85.48;96666.25;5035554;28;20687;-59
2023/08/31 11:32:09;;;;;;;2.20;2.10;;;;;;;17.36;90.03;96661.47;5030991;28;20242;-63
2023/08/31 11:34:41;;;;;;;2.00;1.87;;;;;;;17.72;94.51;96666.63;5031558;28;20196;-60